createdAt,value
2022-08-23T00:00:55.058Z,4.90
2022-08-23T00:03:30.288Z,3.60
2022-08-23T00:06:23.024Z,4.30
2022-08-23T00:08:57.332Z,7.40
2022-08-23T00:11:34.428Z,5.70
2022-08-23T00:14:14.369Z,4.80
2022-08-23T00:16:48.321Z,3.10
2022-08-23T00:19:22.965Z,6.00
2022-08-23T00:21:57.057Z,3.60
2022-08-23T00:24:30.336Z,5.50
2022-08-23T00:29:41.298Z,5.70
2022-08-23T00:32:17.651Z,4.60
2022-08-23T00:34:53.045Z,4.80
2022-08-23T00:37:27.434Z,5.80
2022-08-23T00:40:00.506Z,4.30
2022-08-23T00:42:56.942Z,5.50
2022-08-23T00:45:52.098Z,3.50
2022-08-23T00:48:25.468Z,5.90
2022-08-23T00:51:04.767Z,3.50
2022-08-23T00:53:42.359Z,5.30
2022-08-23T00:56:19.398Z,4.00
2022-08-23T00:58:52.969Z,3.90
2022-08-23T05:46:09.446Z,23.10
2022-08-23T05:48:53.484Z,18.60
2022-08-23T05:51:30.349Z,19.40
2022-08-23T05:54:05.290Z,20.70
2022-08-23T05:56:41.959Z,19.30
2022-08-23T05:59:20.639Z,19.90
2022-08-23T06:01:54.241Z,20.00
2022-08-23T06:04:26.561Z,20.50
2022-08-23T06:07:00.642Z,21.00
2022-08-23T06:09:33.855Z,22.70
2022-08-23T06:12:07.362Z,20.40
2022-08-23T06:14:39.900Z,24.80
2022-08-23T06:17:13.472Z,22.20
2022-08-23T06:19:45.882Z,23.80
2022-08-23T06:22:34.282Z,21.60
2022-08-23T06:25:09.558Z,24.00
2022-08-23T06:28:12.399Z,21.40
2022-08-23T06:30:50.862Z,23.90
2022-08-23T06:33:32.445Z,21.40
2022-08-23T06:36:23.143Z,25.60
2022-08-23T06:39:14.871Z,23.60
2022-08-23T06:42:38.282Z,24.30
2022-08-23T06:45:11.382Z,21.70
2022-08-23T06:47:47.770Z,23.20
2022-08-23T06:50:32.501Z,21.70
2022-08-23T06:53:40.852Z,22.50
2022-08-23T06:59:15.444Z,24.70
2022-08-23T07:02:10.843Z,22.30
2022-08-23T07:05:04.929Z,23.50
2022-08-23T07:08:00.139Z,21.70
2022-08-23T07:10:32.499Z,21.60
2022-08-23T07:13:07.170Z,21.90
2022-08-23T07:15:39.521Z,23.80
2022-08-23T07:18:14.246Z,22.90
2022-08-23T07:20:46.523Z,25.10
2022-08-23T07:23:19.791Z,21.20
2022-08-23T07:25:53.962Z,22.20
2022-08-23T07:28:30.473Z,22.30
2022-08-23T07:31:14.588Z,22.60
2022-08-23T07:33:49.621Z,25.90
2022-08-23T07:36:28.039Z,23.20
2022-08-23T07:39:02.719Z,22.70
2022-08-23T07:41:39.039Z,27.30
2022-08-23T07:44:18.062Z,25.00
2022-08-23T07:46:52.160Z,22.80
2022-08-23T07:49:29.436Z,25.80
2022-08-23T07:52:04.722Z,24.40
2022-08-23T07:54:38.706Z,27.90
2022-08-23T07:57:31.851Z,24.20
2022-08-23T08:00:31.282Z,27.10
2022-08-23T08:03:16.548Z,25.40
2022-08-23T08:06:16.671Z,25.80
2022-08-23T08:08:49.899Z,26.90
2022-08-23T08:13:56.631Z,24.70
2022-08-23T08:16:33.827Z,28.70
2022-08-23T08:19:09.349Z,25.90
2022-08-23T08:22:04.985Z,27.90
2022-08-23T08:24:58.471Z,25.10
2022-08-23T08:27:33.989Z,28.90
2022-08-23T08:30:11.807Z,24.20
2022-08-23T08:32:47.472Z,24.00
2022-08-23T08:35:21.011Z,25.00
2022-08-23T08:37:54.914Z,22.90
2022-08-23T08:40:33.610Z,23.30
2022-08-23T08:43:21.026Z,23.10
2022-08-23T08:46:03.710Z,22.20
2022-08-23T08:48:45.240Z,23.20
2022-08-23T08:51:38.681Z,25.50
2022-08-23T08:54:15.902Z,23.80
2022-08-23T08:56:55.863Z,24.80
2022-08-23T08:59:39.050Z,20.70
2022-08-23T09:02:33.351Z,21.40
2022-08-23T09:05:16.724Z,24.70
2022-08-23T09:08:00.784Z,21.50
2022-08-23T09:10:51.952Z,20.10
2022-08-23T09:14:01.719Z,21.60
2022-08-23T09:16:51.790Z,19.70
2022-08-23T09:19:27.432Z,21.70
2022-08-23T09:22:03.704Z,21.50
2022-08-23T09:24:37.241Z,24.10
2022-08-23T09:27:16.370Z,21.80
2022-08-23T09:32:38.029Z,19.40
2022-08-23T09:35:18.139Z,23.10
2022-08-23T09:38:03.847Z,20.60
2022-08-23T09:40:42.659Z,22.20
2022-08-23T09:43:18.141Z,20.60
2022-08-23T09:46:01.711Z,21.50
2022-08-23T09:48:40.998Z,21.70
2022-08-23T09:51:28.590Z,20.00
2022-08-23T09:54:12.834Z,19.50
2022-08-23T09:56:52.359Z,19.80
2022-08-23T09:59:32.922Z,19.30
2022-08-23T10:02:18.930Z,20.70
2022-08-23T10:05:01.467Z,19.60
2022-08-23T10:07:42.391Z,20.90
2022-08-23T10:10:26.869Z,21.40
2022-08-23T10:13:02.638Z,19.10
2022-08-23T10:15:53.149Z,22.00
2022-08-23T10:18:36.905Z,19.50
2022-08-23T10:21:20.965Z,19.40
2022-08-23T10:24:08.561Z,18.60
2022-08-23T10:26:53.260Z,18.30
2022-08-23T10:29:39.722Z,17.20
2022-08-23T10:32:23.120Z,16.50
2022-08-23T10:35:09.449Z,16.70
2022-08-23T10:38:00.839Z,17.30
2022-08-23T10:40:39.777Z,18.00
2022-08-23T10:43:26.161Z,17.30
2022-08-23T10:46:05.807Z,16.50
2022-08-23T10:48:50.521Z,18.60
2022-08-23T10:51:31.856Z,18.60
2022-08-23T10:54:10.254Z,18.00
2022-08-23T10:56:51.179Z,16.30
2022-08-23T10:59:27.191Z,16.30
2022-08-23T11:02:22.912Z,18.20
2022-08-23T11:05:09.021Z,17.00
2022-08-23T11:07:43.171Z,15.20
2022-08-23T11:13:04.440Z,17.90
2022-08-23T11:15:45.227Z,14.20
2022-08-23T11:18:39.973Z,13.20
2022-08-23T11:21:35.041Z,14.20
2022-08-23T11:24:36.781Z,12.80
2022-08-23T11:27:10.702Z,13.10
2022-08-23T11:29:48.011Z,13.20
2022-08-23T11:32:47.534Z,13.80
2022-08-23T11:35:43.239Z,13.40
2022-08-23T11:38:41.281Z,13.20
2022-08-23T11:41:30.088Z,12.60
2022-08-23T11:44:42.401Z,13.90
2022-08-23T11:47:17.650Z,14.80
2022-08-23T11:50:04.549Z,14.20
2022-08-23T11:53:10.476Z,14.30
2022-08-23T11:56:06.199Z,17.40
2022-08-23T11:59:08.598Z,17.40
2022-08-23T12:01:43.689Z,16.30
2022-08-23T12:04:33.942Z,15.00
2022-08-23T12:07:15.560Z,14.30
2022-08-23T12:10:00.062Z,14.50
2022-08-23T12:12:43.957Z,13.20
2022-08-23T12:15:43.081Z,12.40
2022-08-23T12:18:23.943Z,13.20
2022-08-23T12:21:03.459Z,13.50
2022-08-23T12:23:50.179Z,12.50
2022-08-23T12:26:30.229Z,11.10
2022-08-23T12:29:08.939Z,11.70
2022-08-23T12:31:53.594Z,11.00
2022-08-23T12:34:34.202Z,10.30
2022-08-23T12:37:15.649Z,11.30
2022-08-23T12:39:57.042Z,11.40
2022-08-23T12:42:37.458Z,9.60
2022-08-23T12:45:20.519Z,11.60
2022-08-23T12:48:02.470Z,9.60
2022-08-23T12:50:38.621Z,9.50
2022-08-23T12:53:13.689Z,9.30
2022-08-23T12:55:54.316Z,10.10
2022-08-23T12:58:33.971Z,9.50
2022-08-23T13:01:10.967Z,10.40
2022-08-23T13:03:48.081Z,10.80
2022-08-23T13:06:27.731Z,11.90
2022-08-23T13:09:10.909Z,8.00
2022-08-23T13:11:49.169Z,8.70
2022-08-23T13:14:35.785Z,8.40
2022-08-23T13:17:24.199Z,7.00
2022-08-23T13:20:13.671Z,7.70
2022-08-23T13:23:02.780Z,8.90
2022-08-23T13:25:40.912Z,8.70
2022-08-23T13:28:28.509Z,7.30
2022-08-23T13:31:06.166Z,8.30
2022-08-23T13:33:40.878Z,8.30
2022-08-23T13:36:19.359Z,7.70
2022-08-23T13:38:56.842Z,9.50
2022-08-23T13:41:38.861Z,9.20
2022-08-23T13:44:18.385Z,9.00
2022-08-23T13:46:57.288Z,9.70
2022-08-23T13:49:31.970Z,9.70
2022-08-23T13:52:45.546Z,10.60
2022-08-23T13:55:05.801Z,9.40
2022-08-23T13:57:44.761Z,8.30
2022-08-23T14:00:29.848Z,9.70
2022-08-23T14:03:02.553Z,8.30
2022-08-23T14:05:36.245Z,9.10
2022-08-23T14:08:10.076Z,9.80
2022-08-23T14:10:46.812Z,7.90
2022-08-23T14:13:23.268Z,8.90
2022-08-23T14:19:16.426Z,8.30
2022-08-23T14:21:51.070Z,7.70
2022-08-23T14:24:26.904Z,15.00
2022-08-23T14:27:00.179Z,11.60
2022-08-23T14:29:35.315Z,8.10
2022-08-23T14:32:08.031Z,10.30
2022-08-23T14:34:40.690Z,9.90
2022-08-23T14:40:04.186Z,9.20
2022-08-23T14:42:36.828Z,7.80
2022-08-23T14:45:11.530Z,7.80
2022-08-23T14:47:46.700Z,12.50
2022-08-23T14:50:19.109Z,9.20
2022-08-23T14:52:51.595Z,9.40
2022-08-23T14:55:25.424Z,7.10
2022-08-23T14:57:58.077Z,8.20
2022-08-23T15:03:06.371Z,6.80
2022-08-23T15:05:41.830Z,7.60
2022-08-23T15:12:55.285Z,8.10
2022-08-23T15:13:55.096Z,8.40
2022-08-23T15:16:28.561Z,9.40
2022-08-23T15:21:36.258Z,7.80
2022-08-23T15:24:11.832Z,9.30
2022-08-23T15:26:50.362Z,7.50
2022-08-23T15:29:23.239Z,7.40
2022-08-23T15:31:56.341Z,8.40
2022-08-23T15:34:29.220Z,7.80
2022-08-23T15:37:05.064Z,10.60
2022-08-23T15:39:38.238Z,8.50
2022-08-23T15:42:14.277Z,6.90
2022-08-23T15:44:51.532Z,7.00
2022-08-23T15:47:29.329Z,9.20
2022-08-23T15:50:03.753Z,7.10
2022-08-23T15:52:36.021Z,7.70
2022-08-23T15:55:09.542Z,8.90
2022-08-23T15:57:46.522Z,8.80
2022-08-23T16:00:21.809Z,7.50
2022-08-23T16:03:19.143Z,9.70
2022-08-23T16:05:54.093Z,7.40
2022-08-23T16:08:29.720Z,9.30
2022-08-23T16:11:09.368Z,8.90
2022-08-23T16:13:44.491Z,12.10
2022-08-23T16:16:21.277Z,9.20
2022-08-23T16:18:58.457Z,8.20
2022-08-23T16:21:32.476Z,9.70
2022-08-23T16:24:05.877Z,8.00
2022-08-23T16:26:42.022Z,9.90
2022-08-23T16:29:20.841Z,8.00
2022-08-23T16:31:54.151Z,8.30
2022-08-23T16:34:26.761Z,9.40
2022-08-23T16:37:06.510Z,9.20
2022-08-23T16:39:39.541Z,8.20
2022-08-23T16:42:11.981Z,11.60
2022-08-23T16:44:44.309Z,9.50
2022-08-23T16:47:17.411Z,8.30
2022-08-23T16:49:49.711Z,9.90
2022-08-23T16:52:31.045Z,8.90
2022-08-23T16:55:09.842Z,11.30
2022-08-23T16:57:43.221Z,19.40
2022-08-23T17:00:16.948Z,9.30
2022-08-23T17:02:49.924Z,14.80
2022-08-23T17:05:22.319Z,10.30
2022-08-23T17:07:55.533Z,8.90
2022-08-23T17:10:29.981Z,11.20
2022-08-23T17:13:03.294Z,8.20
2022-08-23T17:15:37.770Z,10.20
2022-08-23T17:18:10.675Z,8.90
2022-08-23T17:23:14.461Z,8.90
2022-08-23T17:25:50.361Z,13.00
2022-08-23T17:28:23.100Z,8.60
2022-08-23T17:30:55.942Z,9.10
2022-08-23T17:33:28.469Z,9.80
2022-08-23T17:36:00.711Z,10.80
2022-08-23T17:38:33.312Z,11.80
2022-08-23T17:41:08.694Z,11.70
2022-08-23T17:43:49.684Z,10.50
2022-08-23T17:46:25.365Z,9.30
2022-08-23T17:49:03.221Z,11.60
2022-08-23T17:51:39.436Z,13.80
2022-08-23T17:54:20.295Z,10.80
2022-08-23T17:56:58.317Z,14.90
2022-08-23T17:59:34.261Z,11.70
2022-08-23T18:02:09.769Z,16.20
2022-08-23T18:04:44.939Z,14.80
2022-08-23T18:07:24.116Z,12.60
2022-08-23T18:09:59.998Z,13.80
2022-08-23T18:12:33.721Z,15.70
2022-08-23T18:15:14.469Z,15.70
2022-08-23T18:17:48.631Z,15.40
2022-08-23T18:20:24.420Z,14.20
2022-08-23T18:22:59.461Z,13.80
2022-08-23T18:25:33.188Z,15.00
2022-08-23T18:28:10.649Z,16.40
2022-08-23T18:30:52.933Z,12.70
2022-08-23T18:33:32.274Z,10.90
2022-08-23T18:36:27.269Z,18.30
2022-08-23T18:39:04.126Z,11.90
2022-08-23T18:41:37.991Z,12.10
2022-08-23T18:46:48.495Z,8.70
2022-08-23T18:49:24.720Z,10.80
2022-08-23T18:52:04.689Z,11.20
2022-08-23T18:54:40.580Z,19.30
2022-08-23T18:57:17.744Z,12.60
2022-08-23T18:59:53.493Z,13.50
2022-08-23T19:02:28.106Z,13.20
2022-08-23T19:05:03.243Z,10.90
2022-08-23T19:07:35.871Z,10.30
2022-08-23T19:10:09.679Z,13.20
2022-08-23T19:12:51.922Z,12.10
2022-08-23T19:15:29.089Z,15.90
2022-08-23T19:18:02.236Z,12.60
2022-08-23T19:23:07.721Z,15.10
2022-08-23T19:25:40.218Z,18.60
2022-08-23T19:28:20.491Z,14.00
2022-08-23T19:30:53.809Z,13.40
2022-08-23T19:33:26.520Z,12.20
2022-08-23T19:35:59.363Z,13.40
2022-08-23T19:41:05.830Z,13.30
2022-08-23T19:43:44.589Z,10.80
2022-08-23T19:46:20.317Z,11.20
2022-08-23T19:48:54.359Z,10.60
2022-08-23T19:51:30.217Z,12.50
2022-08-23T19:54:10.874Z,14.90
2022-08-23T19:56:50.890Z,13.60
2022-08-23T19:59:25.908Z,14.40
2022-08-23T20:02:01.860Z,15.60
2022-08-23T20:04:36.210Z,14.00
2022-08-23T20:07:09.492Z,14.70
2022-08-23T20:09:41.964Z,19.00
2022-08-23T20:12:15.991Z,17.40
2022-08-23T20:14:49.972Z,18.40
2022-08-23T20:17:23.628Z,16.10
2022-08-23T20:19:56.362Z,22.30
2022-08-23T20:22:45.952Z,25.70
2022-08-23T20:25:19.369Z,21.50
2022-08-23T20:27:51.643Z,25.30
2022-08-23T20:30:24.096Z,20.90
2022-08-23T20:32:56.745Z,21.40
2022-08-23T20:35:29.330Z,23.60
2022-08-23T20:38:02.662Z,21.90
2022-08-23T20:40:35.291Z,22.40
2022-08-23T20:43:07.600Z,24.90
2022-08-23T20:45:40.453Z,23.60
2022-08-23T20:48:15.291Z,24.60
2022-08-23T20:50:48.089Z,23.80
2022-08-23T20:53:20.831Z,24.30
2022-08-23T20:55:54.483Z,27.30
2022-08-23T20:58:27.791Z,32.00
2022-08-23T21:01:04.063Z,27.30
2022-08-23T21:03:42.151Z,27.70
2022-08-23T21:06:20.952Z,31.60
2022-08-23T21:08:57.675Z,26.20
2022-08-23T21:11:32.471Z,26.80
2022-08-23T21:14:06.669Z,27.10
2022-08-23T21:16:40.659Z,24.30
2022-08-23T21:19:13.306Z,26.00
2022-08-23T21:21:46.318Z,27.10
2022-08-23T21:26:50.912Z,25.00
2022-08-23T21:29:23.611Z,26.80
2022-08-23T21:31:56.179Z,27.30
2022-08-23T21:37:01.181Z,25.30
2022-08-23T21:39:33.641Z,25.20
2022-08-23T21:42:15.237Z,26.10
2022-08-23T21:44:50.099Z,26.00
2022-08-23T21:47:23.082Z,23.20
2022-08-23T21:49:57.169Z,21.60
2022-08-23T21:52:29.799Z,23.90
2022-08-23T21:55:02.061Z,20.90
2022-08-23T21:57:36.110Z,20.30
2022-08-23T22:00:16.278Z,19.00
2022-08-23T22:02:49.615Z,20.30
2022-08-23T22:07:52.692Z,22.80
2022-08-23T22:10:25.809Z,23.00
2022-08-23T22:13:01.593Z,19.60
2022-08-23T22:15:34.192Z,22.00
2022-08-23T22:18:08.072Z,23.80
2022-08-23T22:20:40.533Z,25.30
2022-08-23T22:23:12.892Z,26.00
2022-08-23T22:25:45.220Z,27.10
2022-08-23T22:28:17.498Z,28.70
2022-08-23T22:30:49.978Z,30.20
2022-08-23T22:33:22.717Z,30.20
2022-08-23T22:35:55.410Z,29.70
2022-08-23T22:38:27.821Z,34.50
2022-08-23T22:41:02.044Z,32.50
2022-08-23T22:43:34.712Z,35.30
2022-08-23T22:46:07.999Z,32.40
2022-08-23T22:48:41.283Z,35.00
2022-08-23T22:53:49.040Z,38.30
2022-08-23T22:56:24.340Z,38.60
2022-08-23T22:59:02.042Z,39.30
2022-08-23T23:01:44.930Z,42.70
2022-08-23T23:04:19.005Z,36.20
2022-08-23T23:06:53.090Z,37.20
2022-08-23T23:09:26.552Z,41.30
2022-08-23T23:12:01.472Z,39.90
2022-08-23T23:14:33.841Z,42.10
2022-08-23T23:17:06.478Z,39.10
2022-08-23T23:19:57.402Z,39.80
2022-08-23T23:22:29.613Z,39.80
2022-08-23T23:25:04.609Z,41.20
2022-08-23T23:27:36.951Z,43.20
2022-08-23T23:30:11.639Z,40.20
2022-08-23T23:32:44.193Z,42.20
2022-08-23T23:35:16.781Z,40.80
2022-08-23T23:37:49.775Z,40.20
2022-08-23T23:40:26.155Z,43.00
2022-08-23T23:42:59.052Z,40.60
2022-08-23T23:45:31.738Z,38.70
2022-08-23T23:48:06.559Z,41.70
2022-08-23T23:50:46.414Z,41.20
2022-08-23T23:53:19.871Z,45.30
2022-08-23T23:55:59.942Z,42.40
2022-08-23T23:58:32.312Z,42.30
